Time;durP1;ratioP1;P1;durP2;ratioP2;P2;SDS_P1;SDS_P2;PMS_P1;PMS_P2;Temp;Humidity;BMP_temperature;BMP_pressure;BME280_temperature;BME280_humidity;BME280_pressure;Samples;Min_cycle;Max_cycle;Signal;HPM_P1;HPM_P2
2022/10/02 00:00:53;;;;;;;9.48;2.88;;;11.50;99.90;;;;;;5117451;27;20014;-76
2022/10/02 00:03:27;;;;;;;9.57;2.70;;;11.50;99.90;;;;;;5110061;27;20127;-72
2022/10/02 00:06:05;;;;;;;17.33;2.70;;;11.50;99.90;;;;;;5130020;27;20039;-76
2022/10/02 00:08:35;;;;;;;14.13;2.65;;;11.50;99.90;;;;;;5131106;27;20100;-74
2022/10/02 00:11:08;;;;;;;21.45;3.15;;;11.60;99.90;;;;;;5130028;27;20126;-72
2022/10/02 00:13:48;;;;;;;12.98;2.80;;;11.50;99.90;;;;;;5112882;27;20046;-74
2022/10/02 00:16:29;;;;;;;9.23;2.72;;;11.60;99.90;;;;;;5129367;27;20349;-71
2022/10/02 00:18:55;;;;;;;13.73;2.45;;;11.60;99.90;;;;;;5111984;28;20043;-76
2022/10/02 00:21:27;;;;;;;10.05;2.33;;;11.60;99.90;;;;;;5130615;27;20480;-72
2022/10/02 00:24:01;;;;;;;13.13;2.67;;;11.70;99.90;;;;;;5129849;27;20054;-76
2022/10/02 00:26:34;;;;;;;8.25;2.40;;;11.60;99.90;;;;;;5110307;28;20122;-72
2022/10/02 00:29:26;;;;;;;13.55;2.85;;;11.60;99.90;;;;;;5110201;28;20124;-71
2022/10/02 00:32:14;;;;;;;10.13;2.50;;;11.60;99.90;;;;;;5091175;28;20472;-75
2022/10/02 00:34:48;;;;;;;;;;;11.60;99.90;;;;;;5110414;28;20035;-71
2022/10/02 00:37:27;;;;;;;10.30;2.88;;;11.60;99.90;;;;;;5109309;28;19915;-71
2022/10/02 00:40:26;;;;;;;8.80;2.47;;;11.60;99.90;;;;;;5112610;28;20146;-76
2022/10/02 00:43:15;;;;;;;7.53;2.85;;;11.50;99.90;;;;;;5130534;28;20125;-75
2022/10/02 00:46:11;;;;;;;15.13;3.03;;;11.50;99.90;;;;;;5130629;28;20082;-72
2022/10/02 00:48:47;;;;;;;11.95;2.85;;;11.50;99.90;;;;;;5112259;28;20477;-71
2022/10/02 00:51:22;;;;;;;12.38;2.33;;;11.50;99.90;;;;;;5130010;28;20534;-72
2022/10/02 00:54:13;;;;;;;11.18;2.35;;;11.40;99.90;;;;;;5131018;28;20073;-73
2022/10/02 00:57:26;;;;;;;9.27;2.35;;;11.40;99.90;;;;;;5120138;28;20042;-74
2022/10/02 01:00:04;;;;;;;10.70;2.60;;;11.40;99.90;;;;;;5026884;28;20478;-72
2022/10/02 01:02:30;;;;;;;7.82;2.65;;;11.40;99.90;;;;;;5105213;28;20087;-71
2022/10/02 01:04:58;;;;;;;9.90;2.88;;;11.40;99.90;;;;;;5091533;28;20140;-75
2022/10/02 01:07:23;;;;;;;16.00;3.30;;;11.40;99.90;;;;;;5109588;28;20047;-73
2022/10/02 01:09:49;;;;;;;14.43;3.88;;;11.40;99.90;;;;;;5092169;28;20047;-72
2022/10/02 01:12:15;;;;;;;8.68;2.30;;;11.40;99.90;;;;;;5109112;28;20206;-72
2022/10/02 01:14:41;;;;;;;13.63;3.08;;;11.50;99.90;;;;;;5075350;28;20051;-71
2022/10/02 01:17:28;;;;;;;11.57;2.55;;;11.50;99.90;;;;;;5070435;28;20043;-74
2022/10/02 01:19:54;;;;;;;16.17;3.08;;;11.50;99.90;;;;;;5129836;27;20045;-75
2022/10/02 01:22:38;;;;;;;10.35;2.63;;;11.50;99.90;;;;;;5133337;27;20039;-71
2022/10/02 01:25:06;;;;;;;12.98;2.88;;;11.50;99.90;;;;;;5134359;27;20047;-72
2022/10/02 01:27:33;;;;;;;10.70;2.90;;;11.60;99.90;;;;;;5121932;27;20120;-72
2022/10/02 01:30:14;;;;;;;9.10;3.25;;;11.60;99.90;;;;;;5113345;28;20036;-76
2022/10/02 01:32:46;;;;;;;10.85;2.75;;;11.60;99.90;;;;;;5112476;28;20491;-71
2022/10/02 01:35:12;;;;;;;8.68;2.53;;;11.60;99.90;;;;;;5111920;28;20055;-71
2022/10/02 01:37:41;;;;;;;12.45;2.40;;;11.60;99.90;;;;;;5113716;28;20052;-72
2022/10/02 01:40:21;;;;;;;11.80;2.60;;;11.60;99.90;;;;;;5123776;27;20067;-71
2022/10/02 01:42:47;;;;;;;13.45;2.50;;;11.60;99.90;;;;;;5133725;27;20027;-73
2022/10/02 01:45:12;;;;;;;13.00;2.80;;;11.60;99.90;;;;;;5132927;27;20134;-73
2022/10/02 01:48:00;;;;;;;11.63;3.05;;;11.70;99.90;;;;;;5132460;27;20114;-74
2022/10/02 01:50:41;;;;;;;12.10;3.20;;;11.70;99.90;;;;;;5093796;28;20043;-73
2022/10/02 01:53:39;;;;;;;16.40;3.65;;;11.70;99.90;;;;;;5112909;28;20039;-72
2022/10/02 01:56:05;;;;;;;14.55;2.67;;;11.70;99.90;;;;;;5114052;27;20059;-73
2022/10/02 01:58:52;;;;;;;9.45;2.83;;;11.70;99.90;;;;;;5115353;27;20043;-72
2022/10/02 02:01:24;;;;;;;;;;;11.70;99.90;;;;;;5125555;27;20045;-72
2022/10/02 02:04:13;;;;;;;11.23;2.67;;;11.70;99.90;;;;;;5132969;27;19959;-71
2022/10/02 02:07:11;;;;;;;10.38;2.55;;;11.70;99.90;;;;;;5114852;27;20039;-73
2022/10/02 02:09:51;;;;;;;11.07;3.38;;;11.70;99.90;;;;;;5125398;27;20107;-72
2022/10/02 02:12:22;;;;;;;15.85;2.80;;;11.70;99.90;;;;;;5132511;27;20078;-72
2022/10/02 02:14:58;;;;;;;11.02;2.22;;;11.70;99.90;;;;;;5133546;27;20392;-71
2022/10/02 02:17:30;;;;;;;13.77;3.05;;;11.70;99.90;;;;;;5131419;27;20588;-72
2022/10/02 02:20:05;;;;;;;16.95;2.30;;;11.70;99.90;;;;;;5130468;27;20065;-74
2022/10/02 02:22:37;;;;;;;13.98;2.50;;;11.70;99.90;;;;;;5094568;28;20043;-72
2022/10/02 02:25:12;;;;;;;7.50;2.47;;;11.70;99.90;;;;;;5124230;27;20069;-76
2022/10/02 02:27:43;;;;;;;8.18;2.05;;;11.70;99.90;;;;;;5114557;27;20039;-72
2022/10/02 02:30:11;;;;;;;11.77;3.38;;;11.70;99.90;;;;;;5114286;27;20047;-72
2022/10/02 02:32:43;;;;;;;10.90;2.33;;;11.70;99.90;;;;;;5131678;27;20146;-73
2022/10/02 02:35:17;;;;;;;11.40;2.40;;;11.60;99.90;;;;;;5131366;27;20058;-71
2022/10/02 02:37:47;;;;;;;16.33;3.78;;;11.60;99.90;;;;;;5132988;27;20047;-72
2022/10/02 02:40:21;;;;;;;13.25;3.08;;;11.60;99.90;;;;;;5108786;28;20417;-72
2022/10/02 02:43:03;;;;;;;8.45;2.15;;;11.60;99.90;;;;;;5112055;28;20108;-71
2022/10/02 02:45:40;;;;;;;10.70;3.55;;;11.60;99.90;;;;;;5118674;27;20143;-71
2022/10/02 02:48:24;;;;;;;14.38;2.00;;;11.50;99.90;;;;;;5111087;28;20051;-76
2022/10/02 02:50:58;;;;;;;13.77;2.20;;;11.50;99.90;;;;;;5093067;28;20039;-72
2022/10/02 02:53:40;;;;;;;11.80;2.67;;;11.50;99.90;;;;;;5111714;28;20096;-72
2022/10/02 02:56:09;;;;;;;9.18;2.15;;;11.40;99.90;;;;;;5111725;27;20040;-75
2022/10/02 02:59:04;;;;;;;14.18;3.55;;;11.40;99.90;;;;;;5093785;28;20048;-71
2022/10/02 03:01:30;;;;;;;10.10;2.42;;;11.40;99.90;;;;;;5091944;28;20051;-72
2022/10/02 03:03:55;;;;;;;11.02;2.50;;;11.30;99.90;;;;;;5111514;28;20047;-73
2022/10/02 03:06:32;;;;;;;10.68;2.05;;;11.30;99.90;;;;;;5128877;27;20118;-72
2022/10/02 03:08:58;;;;;;;7.47;2.13;;;11.30;99.90;;;;;;5110013;28;20079;-72
2022/10/02 03:11:27;;;;;;;8.60;2.00;;;11.30;99.90;;;;;;5110927;28;20057;-71
2022/10/02 03:14:15;;;;;;;11.13;2.05;;;11.30;99.90;;;;;;5097686;28;20087;-72
2022/10/02 03:17:07;;;;;;;10.18;2.10;;;11.30;99.90;;;;;;5106006;27;20048;-71
2022/10/02 03:19:46;;;;;;;6.82;1.77;;;11.20;99.90;;;;;;5110763;28;20052;-71
2022/10/02 03:22:40;;;;;;;12.18;2.35;;;11.20;99.90;;;;;;5110112;28;20047;-75
2022/10/02 03:25:18;;;;;;;13.00;3.40;;;11.20;99.90;;;;;;5105493;27;20055;-72
2022/10/02 03:27:59;;;;;;;8.38;2.13;;;11.20;99.90;;;;;;5111280;28;20047;-71
2022/10/02 03:30:26;;;;;;;14.73;2.00;;;11.20;99.90;;;;;;5110677;28;20101;-72
2022/10/02 03:32:55;;;;;;;8.73;1.80;;;11.20;99.90;;;;;;5110346;28;20083;-73
2022/10/02 03:35:22;;;;;;;4.82;1.67;;;11.30;99.90;;;;;;5123247;27;20090;-71
2022/10/02 03:37:52;;;;;;;7.18;1.75;;;11.20;99.90;;;;;;5131812;27;20058;-71
2022/10/02 03:40:22;;;;;;;5.82;1.75;;;11.20;99.90;;;;;;5130901;27;20551;-71
2022/10/02 03:42:48;;;;;;;4.68;1.90;;;11.20;99.90;;;;;;5112907;27;20051;-71
2022/10/02 03:45:13;;;;;;;12.63;1.98;;;11.20;99.90;;;;;;5125695;27;20058;-76
2022/10/02 03:47:39;;;;;;;7.50;2.03;;;11.20;99.90;;;;;;5109394;28;20051;-71
2022/10/02 03:50:05;;;;;;;6.68;1.58;;;11.20;99.90;;;;;;5091977;28;20044;-71
2022/10/02 03:52:32;;;;;;;7.10;1.90;;;11.10;99.90;;;;;;5092299;28;20051;-71
2022/10/02 03:55:03;;;;;;;6.90;2.30;;;11.10;99.90;;;;;;5113916;27;20036;-73
2022/10/02 03:57:31;;;;;;;7.07;2.25;;;11.20;99.90;;;;;;5130637;27;20054;-71
2022/10/02 04:00:11;;;;;;;8.27;2.45;;;11.20;99.90;;;;;;5096074;27;20043;-72
2022/10/02 04:02:56;;;;;;;6.60;1.95;;;11.20;99.90;;;;;;5111619;27;20039;-74
2022/10/02 04:05:27;;;;;;;7.88;2.22;;;11.10;99.90;;;;;;5129804;27;20039;-71
2022/10/02 04:07:56;;;;;;;10.60;1.67;;;11.20;99.90;;;;;;5131419;27;20103;-74
2022/10/02 04:10:40;;;;;;;7.03;1.55;;;11.10;99.90;;;;;;5126451;27;20035;-72
2022/10/02 04:13:29;;;;;;;5.72;1.63;;;11.20;99.90;;;;;;5105767;27;20039;-71
2022/10/02 04:16:30;;;;;;;7.50;1.73;;;11.20;99.90;;;;;;5098386;28;20066;-74
2022/10/02 04:19:14;;;;;;;11.63;2.50;;;11.10;99.90;;;;;;5120820;27;20108;-72
2022/10/02 04:21:47;;;;;;;6.18;1.58;;;11.10;99.90;;;;;;5112145;28;20689;-71
2022/10/02 04:24:47;;;;;;;10.23;2.17;;;11.10;99.90;;;;;;5115507;27;20051;-72
2022/10/02 04:27:19;;;;;;;5.32;1.85;;;11.10;99.90;;;;;;5110399;28;20051;-72
2022/10/02 04:29:56;;;;;;;9.82;2.20;;;11.00;99.90;;;;;;5110605;28;20043;-74
2022/10/02 04:32:28;;;;;;;13.25;3.00;;;11.00;99.90;;;;;;5108974;28;20050;-72
2022/10/02 04:34:54;;;;;;;15.88;2.17;;;11.00;99.90;;;;;;5124538;28;20498;-75
2022/10/02 04:38:01;;;;;;;9.25;2.22;;;11.00;99.90;;;;;;5127113;28;20059;-75
2022/10/02 04:40:32;;;;;;;7.97;1.92;;;10.90;99.90;;;;;;5123702;28;20103;-71
2022/10/02 04:43:37;;;;;;;8.48;1.90;;;10.90;99.90;;;;;;5130584;28;20062;-71
2022/10/02 04:46:11;;;;;;;6.65;2.28;;;10.90;99.90;;;;;;5129639;28;20039;-73
2022/10/02 04:48:56;;;;;;;8.52;2.33;;;10.90;99.90;;;;;;5129279;28;20601;-72
2022/10/02 04:51:24;;;;;;;8.65;2.53;;;10.90;99.90;;;;;;5129989;28;20133;-76
2022/10/02 04:54:09;;;;;;;10.57;2.10;;;10.90;99.90;;;;;;5124195;28;20146;-71
2022/10/02 04:56:54;;;;;;;10.45;2.15;;;10.90;99.90;;;;;;5132561;27;20049;-71
2022/10/02 04:59:34;;;;;;;16.45;2.40;;;10.90;99.90;;;;;;5134120;27;20050;-75
2022/10/02 05:02:37;;;;;;;22.35;3.42;;;10.90;99.90;;;;;;5116021;27;20461;-71
2022/10/02 05:05:18;;;;;;;10.65;2.40;;;10.90;99.90;;;;;;5131804;27;20065;-71
2022/10/02 05:08:03;;;;;;;11.70;2.53;;;10.90;99.90;;;;;;5134297;27;20047;-71
2022/10/02 05:10:32;;;;;;;12.65;3.13;;;10.90;99.90;;;;;;5131036;27;20043;-74
2022/10/02 05:13:17;;;;;;;15.52;2.72;;;10.90;99.90;;;;;;5134415;27;20122;-71
2022/10/02 05:15:56;;;;;;;10.50;2.63;;;10.90;99.90;;;;;;5115610;27;20039;-74
2022/10/02 05:18:21;;;;;;;10.15;2.55;;;10.90;99.90;;;;;;5133321;27;20357;-75
2022/10/02 05:20:53;;;;;;;16.20;2.75;;;10.90;99.90;;;;;;5132312;27;20050;-72
2022/10/02 05:23:33;;;;;;;9.85;2.47;;;10.90;99.90;;;;;;5134368;27;20042;-74
2022/10/02 05:26:30;;;;;;;12.73;2.90;;;10.90;99.90;;;;;;5114912;27;20048;-71
2022/10/02 05:29:10;;;;;;;11.63;3.67;;;10.90;99.90;;;;;;5113843;28;20044;-71
2022/10/02 05:31:55;;;;;;;12.30;2.70;;;10.90;99.90;;;;;;5121586;27;20054;-71
2022/10/02 05:34:43;;;;;;;16.45;3.22;;;10.90;99.90;;;;;;5115533;27;20503;-75
2022/10/02 05:37:36;;;;;;;13.90;2.95;;;11.00;99.90;;;;;;5115115;27;20051;-71
2022/10/02 05:40:25;;;;;;;14.63;3.28;;;11.00;99.90;;;;;;5123031;27;20052;-73
2022/10/02 05:42:59;;;;;;;7.60;2.70;;;11.00;99.90;;;;;;5131627;27;20038;-71
2022/10/02 05:45:45;;;;;;;10.32;3.00;;;11.00;99.90;;;;;;5129655;27;20043;-76
2022/10/02 05:48:20;;;;;;;11.27;2.10;;;11.00;99.90;;;;;;5112439;28;20043;-71
2022/10/02 05:50:50;;;;;;;10.63;3.13;;;11.00;99.90;;;;;;5111691;28;20096;-71
2022/10/02 05:53:20;;;;;;;10.70;2.58;;;11.00;99.90;;;;;;5113487;28;20044;-72
2022/10/02 05:55:54;;;;;;;9.40;2.33;;;11.00;99.90;;;;;;5112050;27;20046;-71
2022/10/02 05:58:48;;;;;;;16.00;2.50;;;11.00;99.90;;;;;;5133820;27;20430;-71
2022/10/02 06:01:26;;;;;;;15.50;3.35;;;11.00;99.90;;;;;;5132607;27;20058;-73
2022/10/02 06:04:17;;;;;;;8.40;2.35;;;11.00;99.90;;;;;;5123824;27;20048;-73
2022/10/02 06:06:52;;;;;;;13.00;2.60;;;11.00;99.90;;;;;;5093236;28;20807;-72
2022/10/02 06:09:30;;;;;;;8.23;2.13;;;11.00;99.90;;;;;;5103706;27;20043;-72
2022/10/02 06:12:00;;;;;;;8.93;2.63;;;11.00;99.90;;;;;;5133285;27;20061;-72
2022/10/02 06:14:35;;;;;;;5.88;2.70;;;11.00;99.90;;;;;;5133216;27;20061;-75
2022/10/02 06:17:06;;;;;;;17.33;4.35;;;11.00;99.90;;;;;;5132112;27;20432;-71
2022/10/02 06:19:55;;;;;;;16.10;2.60;;;11.00;99.90;;;;;;5101269;28;20039;-71
2022/10/02 06:22:25;;;;;;;16.65;2.80;;;11.00;99.90;;;;;;5122498;27;20039;-71
2022/10/02 06:25:20;;;;;;;9.45;2.67;;;11.10;99.90;;;;;;5133058;27;20532;-72
2022/10/02 06:28:01;;;;;;;17.13;2.45;;;11.10;99.90;;;;;;5131625;27;20208;-70
2022/10/02 06:30:30;;;;;;;9.55;2.63;;;11.10;99.90;;;;;;5132662;27;20047;-74
2022/10/02 06:33:08;;;;;;;14.00;2.78;;;11.20;99.90;;;;;;5131593;27;20074;-71
2022/10/02 06:36:07;;;;;;;6.88;3.08;;;11.30;99.90;;;;;;5111410;27;20066;-72
2022/10/02 06:38:54;;;;;;;16.45;3.67;;;11.30;99.90;;;;;;5111796;28;20067;-70
2022/10/02 06:41:26;;;;;;;12.93;2.78;;;11.40;99.90;;;;;;5153001;27;20510;-71
2022/10/02 06:44:16;;;;;;;9.93;2.30;;;11.40;99.90;;;;;;5122354;27;20339;-70
2022/10/02 06:46:56;;;;;;;12.80;2.30;;;11.50;99.90;;;;;;5115947;27;20138;-69
2022/10/02 06:49:50;;;;;;;7.88;2.42;;;11.50;99.90;;;;;;5133952;27;20479;-63
2022/10/02 06:52:15;;;;;;;10.45;2.90;;;11.60;99.90;;;;;;5126083;27;20039;-63
2022/10/02 06:55:22;;;;;;;7.90;2.38;;;11.70;99.90;;;;;;5132126;27;20065;-64
2022/10/02 06:58:25;;;;;;;11.57;2.38;;;11.80;99.90;;;;;;5027711;28;20060;-63
2022/10/02 07:01:15;;;;;;;12.32;2.30;;;11.90;99.90;;;;;;5131571;27;20107;-70
2022/10/02 07:03:48;;;;;;;7.85;3.38;;;11.90;99.90;;;;;;5118081;27;20429;-70
2022/10/02 07:06:22;;;;;;;10.02;2.83;;;12.00;99.90;;;;;;5111468;28;20448;-64
2022/10/02 07:09:22;;;;;;;7.22;2.25;;;12.00;99.90;;;;;;5119544;27;20099;-62
2022/10/02 07:12:03;;;;;;;11.63;2.75;;;12.10;99.90;;;;;;5139171;27;20432;-63
2022/10/02 07:14:37;;;;;;;12.27;2.47;;;12.20;99.90;;;;;;5141160;27;20039;-63
2022/10/02 07:17:24;;;;;;;12.70;2.58;;;12.30;99.90;;;;;;5112493;27;20380;-65
2022/10/02 07:20:04;;;;;;;8.15;3.00;;;12.30;99.90;;;;;;5122467;27;20722;-64
2022/10/02 07:22:55;;;;;;;9.13;2.30;;;12.40;99.90;;;;;;5122472;27;20059;-73
2022/10/02 07:25:31;;;;;;;10.98;2.10;;;12.40;99.90;;;;;;5119433;27;20047;-64
2022/10/02 07:28:14;;;;;;;12.05;2.38;;;12.50;99.90;;;;;;5113047;27;20048;-63
2022/10/02 07:31:21;;;;;;;12.32;2.25;;;12.60;99.90;;;;;;5130697;27;20051;-63
2022/10/02 07:34:25;;;;;;;10.85;2.97;;;12.60;99.90;;;;;;5130371;27;20129;-70
2022/10/02 07:37:28;;;;;;;6.80;2.17;;;12.70;99.90;;;;;;5130481;27;20059;-70
2022/10/02 07:40:20;;;;;;;20.65;4.35;;;12.80;99.90;;;;;;5131607;27;20110;-73
2022/10/02 07:43:15;;;;;;;13.68;3.08;;;12.80;99.90;;;;;;5129879;27;20068;-72
2022/10/02 07:45:48;;;;;;;16.95;2.70;;;12.90;99.90;;;;;;5129696;27;20472;-71
2022/10/02 07:48:50;;;;;;;4.20;1.75;;;13.00;99.90;;;;;;5109430;27;20043;-73
2022/10/02 07:54:32;;;;;;;11.05;2.20;;;13.10;99.90;;;;;;5122841;27;20039;-72
2022/10/02 07:57:03;;;;;;;7.10;1.85;;;13.30;99.90;;;;;;5099680;27;20076;-72
2022/10/02 07:59:32;;;;;;;8.68;2.30;;;13.40;99.90;;;;;;5112850;27;20114;-72
2022/10/02 08:01:58;;;;;;;6.20;1.50;;;13.50;99.90;;;;;;5111179;27;20557;-72
2022/10/02 08:04:31;;;;;;;8.90;1.92;;;13.70;99.90;;;;;;5112130;27;20047;-72
2022/10/02 08:07:02;;;;;;;11.95;2.33;;;13.90;99.90;;;;;;5111259;27;20056;-72
2022/10/02 08:09:38;;;;;;;12.25;1.77;;;14.00;99.90;;;;;;5109024;28;20051;-73
2022/10/02 08:12:25;;;;;;;9.70;2.00;;;14.10;99.90;;;;;;5128379;27;20035;-72
2022/10/02 08:14:54;;;;;;;10.02;1.83;;;14.00;99.90;;;;;;5130224;27;20447;-73
2022/10/02 08:17:47;;;;;;;10.48;1.80;;;14.00;99.90;;;;;;5129317;27;20383;-72
2022/10/02 08:20:31;;;;;;;11.70;2.25;;;14.00;99.90;;;;;;5126118;27;20122;-72
2022/10/02 08:23:15;;;;;;;7.25;2.08;;;14.00;99.90;;;;;;5098046;28;20612;-72
2022/10/02 08:26:20;;;;;;;11.00;2.15;;;14.10;99.90;;;;;;5115885;27;20043;-76
2022/10/02 08:29:04;;;;;;;10.82;2.45;;;14.10;99.90;;;;;;5102747;27;20043;-72
2022/10/02 08:31:31;;;;;;;7.55;1.85;;;14.20;99.90;;;;;;5105051;28;20051;-72
2022/10/02 08:33:59;;;;;;;21.05;2.70;;;14.20;99.90;;;;;;5108617;28;20122;-72
2022/10/02 08:36:54;;;;;;;10.27;2.50;;;14.30;99.90;;;;;;5113926;28;20489;-72
2022/10/02 08:39:55;;;;;;;15.05;2.13;;;14.40;99.90;;;;;;5111398;28;20062;-74
2022/10/02 08:42:36;;;;;;;8.35;1.98;;;14.50;99.90;;;;;;5074276;28;20079;-72
2022/10/02 08:45:19;;;;;;;11.35;2.20;;;14.50;99.90;;;;;;5128950;28;20039;-73
2022/10/02 08:48:22;;;;;;;6.20;1.70;;;14.60;99.90;;;;;;5109315;28;20043;-73
2022/10/02 08:51:08;;;;;;;7.05;1.88;;;14.60;99.90;;;;;;5122952;28;20043;-74
2022/10/02 08:54:12;;;;;;;9.13;2.47;;;14.70;99.90;;;;;;5112309;28;20081;-72
2022/10/02 08:56:41;;;;;;;7.25;1.98;;;14.80;99.90;;;;;;5129788;28;20058;-74
2022/10/02 08:59:34;;;;;;;7.82;1.67;;;14.90;99.90;;;;;;5130205;27;20035;-72
2022/10/02 09:02:36;;;;;;;21.85;2.78;;;14.90;99.90;;;;;;5128288;28;20043;-73
2022/10/02 09:05:30;;;;;;;6.80;1.60;;;14.90;99.90;;;;;;5118282;27;20119;-74
2022/10/02 09:08:25;;;;;;;11.55;1.98;;;15.00;99.90;;;;;;5119719;27;20092;-75
2022/10/02 09:11:12;;;;;;;15.10;2.30;;;15.10;99.90;;;;;;5129826;28;20057;-71
2022/10/02 09:14:15;;;;;;;5.80;1.50;;;15.20;99.90;;;;;;5125781;27;20050;-73
2022/10/02 09:17:06;;;;;;;13.85;2.88;;;15.30;99.90;;;;;;5107683;27;22010;-78
2022/10/02 09:20:03;;;;;;;8.73;1.60;;;15.30;99.90;;;;;;5129251;27;20099;-72
2022/10/02 09:23:14;;;;;;;10.07;1.52;;;15.50;99.90;;;;;;5120208;27;20114;-72
2022/10/02 09:25:57;;;;;;;10.40;1.50;;;15.60;99.90;;;;;;5144048;27;20038;-74
2022/10/02 09:28:34;;;;;;;5.63;1.65;;;15.70;99.90;;;;;;5129807;27;20057;-72
2022/10/02 09:31:18;;;;;;;8.85;2.00;;;15.80;99.90;;;;;;5123717;27;20051;-72
2022/10/02 09:34:03;;;;;;;10.13;1.50;;;15.80;99.90;;;;;;5137289;27;20049;-74
2022/10/02 09:36:46;;;;;;;10.00;1.83;;;15.80;99.90;;;;;;5141791;27;20125;-71
2022/10/02 09:39:33;;;;;;;7.25;1.38;;;15.80;99.90;;;;;;5144528;27;20050;-71
2022/10/02 09:42:07;;;;;;;;;;;15.80;99.90;;;;;;5148282;27;20498;-70
2022/10/02 09:44:43;;;;;;;7.00;1.73;;;15.70;99.90;;;;;;5148257;27;20394;-74
2022/10/02 09:47:34;;;;;;;12.67;2.43;;;15.80;99.90;;;;;;5148600;27;20126;-73
2022/10/02 09:50:23;;;;;;;11.00;2.03;;;15.90;99.90;;;;;;5149795;27;20110;-74
2022/10/02 09:53:07;;;;;;;3.90;1.08;;;16.00;99.90;;;;;;5113013;27;20042;-74
2022/10/02 09:55:40;;;;;;;10.80;1.48;;;16.00;99.90;;;;;;5141614;27;20042;-70
2022/10/02 09:58:34;;;;;;;5.60;1.30;;;16.10;99.90;;;;;;5147743;27;20114;-71
2022/10/02 10:01:29;;;;;;;5.28;1.40;;;16.20;99.90;;;;;;5147002;27;20059;-72
2022/10/02 10:04:07;;;;;;;8.50;1.67;;;16.30;99.90;;;;;;5144001;27;20480;-70
2022/10/02 10:06:58;;;;;;;7.45;1.35;;;16.50;99.90;;;;;;5142445;27;20038;-71
2022/10/02 10:09:54;;;;;;;11.93;2.00;;;16.60;99.90;;;;;;5133190;27;20409;-71
2022/10/02 10:12:41;;;;;;;20.25;3.55;;;16.60;99.90;;;;;;5133957;27;20392;-71
2022/10/02 10:15:39;;;;;;;5.70;1.45;;;16.50;99.90;;;;;;5151807;27;20034;-73
2022/10/02 10:18:08;;;;;;;;;;;16.50;99.90;;;;;;5144496;27;20108;-71
2022/10/02 10:20:40;;;;;;;13.43;1.77;;;16.70;99.90;;;;;;5144517;27;19934;-70
2022/10/02 10:23:24;;;;;;;7.18;1.60;;;16.80;99.90;;;;;;5149430;27;20070;-72
2022/10/02 10:26:01;;;;;;;7.30;1.48;;;16.90;99.90;;;;;;5151419;27;20113;-75
2022/10/02 10:28:54;;;;;;;10.18;1.52;;;17.00;99.90;;;;;;5152543;27;20126;-73
2022/10/02 10:31:58;;;;;;;10.57;1.20;;;17.00;99.90;;;;;;5134526;27;20038;-72
2022/10/02 10:34:52;;;;;;;7.35;1.52;;;17.00;99.90;;;;;;5143523;27;20094;-71
2022/10/02 10:40:34;;;;;;;7.10;1.13;;;16.70;99.90;;;;;;5132291;27;20074;-70
2022/10/02 10:43:03;;;;;;;;;;;16.50;99.90;;;;;;5138108;27;20069;-70
2022/10/02 10:45:40;;;;;;;6.22;1.35;;;16.40;99.90;;;;;;5140746;27;19915;-72
2022/10/02 10:48:19;;;;;;;8.93;1.50;;;16.40;99.90;;;;;;5116596;27;20039;-71
2022/10/02 10:51:15;;;;;;;4.60;1.27;;;16.30;99.90;;;;;;5113780;27;20125;-73
2022/10/02 10:54:08;;;;;;;9.07;1.50;;;16.40;99.90;;;;;;5132955;27;20364;-70
2022/10/02 10:56:49;;;;;;;11.25;1.85;;;16.60;99.90;;;;;;5132371;27;20039;-70
2022/10/02 10:59:34;;;;;;;10.15;1.55;;;16.90;99.90;;;;;;5146709;27;20495;-71
2022/10/02 11:02:25;;;;;;;5.50;1.13;;;17.20;99.90;;;;;;5134321;27;20039;-71
2022/10/02 11:05:17;;;;;;;9.68;2.33;;;17.40;99.90;;;;;;5130364;27;20578;-75
2022/10/02 11:08:12;;;;;;;5.15;1.65;;;17.50;99.90;;;;;;5131549;27;20043;-71
2022/10/02 11:10:46;;;;;;;10.88;1.60;;;17.60;99.90;;;;;;5145003;27;20091;-73
2022/10/02 11:13:40;;;;;;;5.18;1.15;;;17.90;99.90;;;;;;5150860;27;20184;-73
2022/10/02 11:17:00;;;;;;;9.60;1.45;;;18.10;99.90;;;;;;5150152;27;20039;-72
2022/10/02 11:19:53;;;;;;;6.45;1.15;;;18.20;99.90;;;;;;5104279;27;20051;-71
2022/10/02 11:22:27;;;;;;;7.50;1.40;;;18.40;99.90;;;;;;5148127;27;20066;-72
2022/10/02 11:25:49;;;;;;;5.53;1.60;;;18.50;99.90;;;;;;5142021;27;20076;-76
2022/10/02 11:28:32;;;;;;;10.30;1.63;;;18.40;99.90;;;;;;5065271;28;20116;-73
2022/10/02 11:31:19;;;;;;;8.00;1.50;;;18.10;99.90;;;;;;5066186;28;20040;-75
2022/10/02 11:34:18;;;;;;;6.65;1.33;;;18.30;99.90;;;;;;5129288;27;20074;-75
2022/10/02 11:37:22;;;;;;;8.27;1.85;;;18.40;99.90;;;;;;5121578;27;20062;-72
2022/10/02 11:40:02;;;;;;;7.85;1.45;;;18.50;99.90;;;;;;5113998;27;20047;-73
2022/10/02 11:43:01;;;;;;;5.30;1.67;;;18.60;99.90;;;;;;5131206;27;20065;-73
2022/10/02 11:45:54;;;;;;;8.02;1.55;;;19.00;99.90;;;;;;5132046;27;20126;-72
2022/10/02 11:48:25;;;;;;;8.45;1.70;;;19.70;99.90;;;;;;5109283;27;20043;-72
2022/10/02 11:51:09;;;;;;;6.78;1.58;;;20.20;99.90;;;;;;5092283;28;20047;-71
2022/10/02 11:54:00;;;;;;;8.18;1.35;;;20.30;97.80;;;;;;5120633;27;20043;-73
2022/10/02 11:56:44;;;;;;;4.78;1.00;;;19.90;97.20;;;;;;5124789;27;20043;-73
2022/10/02 11:59:47;;;;;;;5.53;0.95;;;19.20;92.90;;;;;;5123849;27;20361;-72
2022/10/02 12:02:34;;;;;;;5.65;1.23;;;18.40;91.00;;;;;;5111303;27;20482;-71
2022/10/02 12:05:20;;;;;;;2.65;1.08;;;17.70;93.70;;;;;;5111222;27;20038;-76
2022/10/02 12:07:58;;;;;;;5.65;1.33;;;17.30;99.90;;;;;;5131608;27;20047;-71
2022/10/02 12:10:36;;;;;;;3.22;1.05;;;17.00;98.90;;;;;;5112339;27;20047;-72
2022/10/02 12:13:14;;;;;;;6.45;1.10;;;16.80;99.90;;;;;;5110223;28;20067;-76
2022/10/02 12:15:52;;;;;;;13.68;2.55;;;16.70;99.90;;;;;;5126699;27;20064;-72
2022/10/02 12:18:32;;;;;;;7.88;1.55;;;16.70;99.90;;;;;;5119975;27;20042;-73
2022/10/02 12:27:42;;;;;;;4.90;1.40;;;17.80;99.90;;;;;;5130089;27;20049;-73
2022/10/02 12:30:29;;;;;;;9.43;1.42;;;18.50;99.90;;;;;;5023701;28;20410;-73
2022/10/02 12:33:09;;;;;;;9.95;1.98;;;19.10;99.90;;;;;;5129514;27;20462;-73
2022/10/02 12:36:04;;;;;;;7.20;1.55;;;19.60;99.90;;;;;;5120777;28;20066;-74
2022/10/02 12:39:02;;;;;;;9.88;1.40;;;20.10;99.80;;;;;;5096464;27;20048;-73
2022/10/02 12:41:51;;;;;;;11.45;1.75;;;20.50;93.00;;;;;;5121267;28;20046;-74
2022/10/02 12:44:57;;;;;;;5.82;1.50;;;20.70;90.30;;;;;;5116461;28;20039;-73
2022/10/02 12:47:35;;;;;;;8.82;1.30;;;20.90;89.00;;;;;;5125446;27;20047;-74
2022/10/02 12:50:22;;;;;;;7.00;1.52;;;21.20;88.80;;;;;;5093950;27;20067;-76
2022/10/02 12:53:28;;;;;;;8.57;1.65;;;21.40;85.80;;;;;;5110394;27;20100;-74
2022/10/02 12:56:16;;;;;;;7.63;1.92;;;21.60;76.40;;;;;;5110030;27;20143;-76
2022/10/02 12:59:05;;;;;;;10.30;2.50;;;21.80;84.10;;;;;;5092071;28;20047;-74
2022/10/02 13:01:39;;;;;;;10.15;1.83;;;21.90;73.70;;;;;;5109219;28;20369;-73
2022/10/02 13:04:25;;;;;;;8.45;2.00;;;21.80;79.20;;;;;;5126214;27;20127;-78
2022/10/02 13:07:29;;;;;;;6.63;1.30;;;21.60;73.90;;;;;;5116801;28;20484;-75
2022/10/02 13:10:18;;;;;;;6.13;1.38;;;21.60;74.50;;;;;;5125069;28;20047;-74
2022/10/02 13:13:17;;;;;;;6.80;1.33;;;21.80;76.20;;;;;;5127360;28;20031;-76
2022/10/02 13:16:06;;;;;;;8.82;1.25;;;22.10;76.70;;;;;;5072146;28;20071;-77
2022/10/02 13:18:51;;;;;;;5.97;1.88;;;22.50;76.40;;;;;;5134277;27;20039;-74
2022/10/02 13:21:36;;;;;;;9.27;1.30;;;22.70;69.20;;;;;;5111949;28;20074;-74
2022/10/02 13:24:13;;;;;;;5.10;1.10;;;22.70;69.20;;;;;;5110124;27;20039;-75
2022/10/02 13:26:51;;;;;;;6.32;1.20;;;22.60;64.90;;;;;;5134243;27;20050;-75
2022/10/02 13:29:23;;;;;;;7.85;1.60;;;22.40;67.40;;;;;;5133829;27;20046;-74
2022/10/02 13:32:24;;;;;;;5.50;1.10;;;22.40;68.70;;;;;;5133656;27;20035;-74
2022/10/02 13:35:21;;;;;;;8.05;1.45;;;22.40;68.10;;;;;;5115656;27;20050;-75
2022/10/02 13:38:02;;;;;;;3.65;1.58;;;22.90;64.40;;;;;;5125820;27;20127;-76
2022/10/02 13:40:43;;;;;;;8.73;1.92;;;22.70;68.90;;;;;;5132873;27;20118;-75
2022/10/02 13:43:29;;;;;;;5.10;1.33;;;22.40;67.60;;;;;;5133503;27;20372;-78
2022/10/02 13:46:21;;;;;;;4.82;1.45;;;21.90;70.90;;;;;;5115729;27;20088;-76
2022/10/02 13:48:58;;;;;;;9.75;1.75;;;21.20;70.30;;;;;;5118743;27;20059;-74
2022/10/02 13:51:38;;;;;;;8.80;1.58;;;20.90;73.40;;;;;;5133191;27;20039;-74
2022/10/02 13:54:46;;;;;;;8.30;1.83;;;20.70;74.40;;;;;;5134100;27;20043;-73
2022/10/02 13:57:34;;;;;;;8.02;1.98;;;21.10;74.40;;;;;;5099073;27;20107;-77
2022/10/02 14:00:22;;;;;;;8.40;1.42;;;22.30;74.50;;;;;;5097494;27;20079;-74
2022/10/02 14:03:30;;;;;;;5.03;1.48;;;24.10;70.40;;;;;;5113146;27;20040;-76
2022/10/02 14:05:55;;;;;;;;;;;25.50;62.10;;;;;;5097290;27;20396;-74
2022/10/02 14:08:36;;;;;;;3.03;1.10;;;26.30;59.20;;;;;;5114871;27;19923;-74
2022/10/02 14:11:14;;;;;;;6.80;0.90;;;26.80;62.80;;;;;;5116249;27;20472;-75
2022/10/02 14:13:55;;;;;;;5.80;1.40;;;27.20;65.60;;;;;;5120704;27;20035;-75